Time;durP1;ratioP1;P1;durP2;ratioP2;P2;SDS_P1;SDS_P2;PMS_P1;PMS_P2;Temp;Humidity;BMP_temperature;BMP_pressure;BME280_temperature;BME280_humidity;BME280_pressure;Samples;Min_cycle;Max_cycle;Signal;HPM_P1;HPM_P2
2021/12/20 00:01:18;;;;;;;29.88;15.00;;;4.00;99.90;;;;;;5019327;28;20110;-78
2021/12/20 00:03:43;;;;;;;35.35;15.98;;;3.90;99.90;;;;;;4980617;28;20026;-79
2021/12/20 00:06:09;;;;;;;35.30;16.08;;;3.90;99.90;;;;;;4981291;28;20202;-79
2021/12/20 00:08:36;;;;;;;34.65;15.02;;;3.90;99.90;;;;;;4981219;28;20038;-78
2021/12/20 00:11:03;;;;;;;32.30;14.90;;;3.90;99.90;;;;;;4981114;28;20102;-80
2021/12/20 00:13:29;;;;;;;32.90;15.73;;;3.90;99.90;;;;;;4972509;28;20069;-78
2021/12/20 00:15:55;;;;;;;38.72;16.10;;;3.90;99.90;;;;;;4979943;28;20126;-76
2021/12/20 00:18:21;;;;;;;36.50;16.27;;;3.80;99.90;;;;;;4980869;28;20041;-77
2021/12/20 00:20:47;;;;;;;34.08;15.68;;;3.80;99.90;;;;;;4980968;28;20209;-80
2021/12/20 00:23:13;;;;;;;35.25;16.17;;;3.90;99.90;;;;;;4981202;28;20082;-80
2021/12/20 00:25:39;;;;;;;31.17;15.57;;;3.90;99.90;;;;;;4980868;28;20035;-79
2021/12/20 00:28:05;;;;;;;32.55;15.98;;;3.80;99.90;;;;;;4986657;28;20027;-79
2021/12/20 00:30:32;;;;;;;34.35;14.50;;;3.80;99.90;;;;;;5064513;28;20036;-78
2021/12/20 00:32:58;;;;;;;35.38;16.08;;;3.80;99.90;;;;;;5094074;28;20012;-77
2021/12/20 00:35:25;;;;;;;31.98;15.98;;;3.80;99.90;;;;;;5080839;28;20036;-77
2021/12/20 00:40:37;;;;;;;32.92;15.50;;;3.80;99.90;;;;;;4981770;28;20081;-78
2021/12/20 00:43:03;;;;;;;32.35;15.75;;;3.80;99.90;;;;;;4966620;28;20062;-78
2021/12/20 00:45:35;;;;;;;32.08;15.48;;;3.80;99.90;;;;;;4961228;28;20019;-78
2021/12/20 00:48:02;;;;;;;33.25;15.65;;;3.80;99.90;;;;;;4960563;28;20047;-78
2021/12/20 00:50:28;;;;;;;34.83;15.48;;;3.90;99.90;;;;;;5012126;28;20032;-79
2021/12/20 00:52:55;;;;;;;33.05;16.23;;;3.80;99.90;;;;;;5064062;28;20040;-78
2021/12/20 00:55:23;;;;;;;31.50;15.40;;;3.80;99.90;;;;;;4977739;28;20039;-78
2021/12/20 00:57:50;;;;;;;;;;;3.80;99.90;;;;;;4962294;28;20088;-78
2021/12/20 01:00:19;;;;;;;31.90;14.88;;;3.80;99.90;;;;;;4977348;28;20180;-79
2021/12/20 01:02:46;;;;;;;33.20;15.65;;;3.90;99.90;;;;;;4959833;28;20039;-79
2021/12/20 01:05:12;;;;;;;33.00;15.52;;;3.90;99.90;;;;;;4956244;28;20072;-78
2021/12/20 01:07:38;;;;;;;31.42;15.52;;;3.90;99.90;;;;;;4980399;28;20023;-78
2021/12/20 01:10:08;;;;;;;31.17;14.93;;;3.90;99.90;;;;;;4970753;28;20047;-78
2021/12/20 01:12:44;;;;;;;31.27;14.80;;;3.80;99.90;;;;;;4943816;28;20057;-78
2021/12/20 01:15:19;;;;;;;31.42;15.20;;;3.80;99.90;;;;;;4960505;28;20042;-78
2021/12/20 01:17:45;;;;;;;34.72;15.43;;;3.70;99.90;;;;;;4960489;29;20054;-78
2021/12/20 01:20:11;;;;;;;33.72;14.57;;;3.70;99.90;;;;;;4960952;28;20321;-78
2021/12/20 01:22:37;;;;;;;32.50;14.90;;;3.70;99.90;;;;;;4965520;28;20091;-78
2021/12/20 01:25:03;;;;;;;30.85;14.35;;;3.60;99.90;;;;;;4980097;28;20062;-78
2021/12/20 01:27:29;;;;;;;31.52;14.27;;;3.60;99.90;;;;;;4980359;28;20050;-77
2021/12/20 01:29:55;;;;;;;34.10;14.60;;;3.50;99.90;;;;;;4963309;28;20023;-79
2021/12/20 01:32:22;;;;;;;35.58;16.20;;;3.50;99.90;;;;;;4943540;29;20043;-79
2021/12/20 01:34:48;;;;;;;36.30;16.00;;;3.60;99.90;;;;;;4960172;29;20112;-78
2021/12/20 01:37:15;;;;;;;35.47;15.65;;;3.50;99.90;;;;;;4960576;29;20035;-77
2021/12/20 01:39:41;;;;;;;39.05;16.77;;;3.50;99.90;;;;;;4960266;29;20345;-78
2021/12/20 01:42:08;;;;;;;42.40;16.77;;;3.50;99.90;;;;;;4978262;28;20046;-77
2021/12/20 01:44:36;;;;;;;37.92;16.48;;;3.50;99.90;;;;;;4964338;28;20031;-78
2021/12/20 01:47:04;;;;;;;38.97;17.17;;;3.50;99.90;;;;;;4977893;28;20341;-78
2021/12/20 01:49:33;;;;;;;38.92;16.40;;;3.40;99.90;;;;;;4966369;28;20023;-78
2021/12/20 01:54:26;;;;;;;37.03;15.80;;;3.40;99.90;;;;;;5067715;28;20029;-78
2021/12/20 01:56:51;;;;;;;36.17;16.45;;;3.30;99.90;;;;;;5016746;28;20084;-77
2021/12/20 01:59:17;;;;;;;33.97;16.23;;;3.30;99.90;;;;;;4976503;28;20105;-79
2021/12/20 02:01:46;;;;;;;41.60;17.05;;;3.30;99.90;;;;;;4982155;28;20055;-76
2021/12/20 02:04:13;;;;;;;40.15;17.17;;;3.40;99.90;;;;;;4982882;28;20046;-76
2021/12/20 02:06:40;;;;;;;40.33;17.70;;;3.40;99.90;;;;;;4983290;28;20094;-77
2021/12/20 02:09:13;;;;;;;44.80;18.88;;;3.40;99.90;;;;;;4981356;28;20209;-77
2021/12/20 02:11:41;;;;;;;42.42;16.98;;;3.40;99.90;;;;;;4977359;28;20047;-78
2021/12/20 02:14:09;;;;;;;40.30;17.75;;;3.40;99.90;;;;;;4980067;28;20074;-78
2021/12/20 02:16:35;;;;;;;;;;;3.40;99.90;;;;;;4998471;28;20049;-78
2021/12/20 02:19:07;;;;;;;37.92;15.73;;;3.40;99.90;;;;;;4948705;29;19903;-78
2021/12/20 02:21:33;;;;;;;37.15;16.15;;;3.40;99.90;;;;;;4963401;29;20039;-77
2021/12/20 02:23:59;;;;;;;34.63;16.00;;;3.40;99.90;;;;;;4963238;29;20089;-78
2021/12/20 02:26:25;;;;;;;33.33;14.63;;;3.30;99.90;;;;;;4963379;29;20336;-78
2021/12/20 02:28:57;;;;;;;36.88;16.92;;;3.40;99.90;;;;;;4945850;29;20313;-78
2021/12/20 02:37:41;;;;;;;36.15;14.82;;;3.30;99.90;;;;;;4981970;28;20034;-78
2021/12/20 02:39:43;;;;;;;35.80;15.27;;;3.30;99.90;;;;;;4988982;28;20050;-79
2021/12/20 02:42:13;;;;;;;44.97;17.90;;;3.40;99.90;;;;;;4981090;28;20023;-78
2021/12/20 02:44:53;;;;;;;32.90;14.98;;;3.40;99.90;;;;;;4976059;28;20023;-78
2021/12/20 02:47:28;;;;;;;34.22;15.73;;;3.40;99.90;;;;;;4975506;28;20033;-78
2021/12/20 02:49:55;;;;;;;32.92;14.18;;;3.40;99.90;;;;;;5001299;28;20089;-78
2021/12/20 02:52:21;;;;;;;28.98;14.25;;;3.40;99.90;;;;;;5036638;28;20027;-78
2021/12/20 02:54:47;;;;;;;30.25;14.45;;;3.40;99.90;;;;;;4982012;28;20038;-78
2021/12/20 02:57:13;;;;;;;31.25;14.02;;;3.40;99.90;;;;;;4981998;28;20054;-78
2021/12/20 02:59:38;;;;;;;37.45;15.30;;;3.50;99.90;;;;;;4965443;28;20034;-77
2021/12/20 03:02:08;;;;;;;34.22;14.15;;;3.50;99.90;;;;;;4981998;28;20030;-77
2021/12/20 03:04:35;;;;;;;36.05;14.45;;;3.50;99.90;;;;;;4971191;28;20034;-77
2021/12/20 03:07:05;;;;;;;34.15;14.70;;;3.50;99.90;;;;;;4981618;28;20213;-79
2021/12/20 03:09:35;;;;;;;32.67;15.05;;;3.50;99.90;;;;;;4982415;28;20108;-78
2021/12/20 03:12:04;;;;;;;36.85;15.43;;;3.60;99.90;;;;;;4980457;28;20035;-78
2021/12/20 03:14:35;;;;;;;;;;;3.60;99.90;;;;;;4981637;28;20061;-79
2021/12/20 03:17:02;;;;;;;35.47;14.48;;;3.60;99.90;;;;;;4981594;28;19955;-78
2021/12/20 03:19:29;;;;;;;30.20;13.80;;;3.60;99.90;;;;;;4982002;28;20374;-78
2021/12/20 03:21:55;;;;;;;29.75;13.82;;;3.60;99.90;;;;;;4980275;28;20186;-78
2021/12/20 03:24:21;;;;;;;27.70;13.63;;;3.50;99.90;;;;;;4980675;28;20027;-78
2021/12/20 03:26:48;;;;;;;29.17;14.35;;;3.50;99.90;;;;;;4980739;28;20030;-79
2021/12/20 03:29:14;;;;;;;32.78;14.82;;;3.50;99.90;;;;;;4982053;28;20336;-79
2021/12/20 03:31:40;;;;;;;33.47;15.40;;;3.40;99.90;;;;;;4981667;28;20039;-80
2021/12/20 03:34:06;;;;;;;27.52;13.25;;;3.40;99.90;;;;;;4980436;28;20046;-78
2021/12/20 03:36:35;;;;;;;30.55;13.52;;;3.50;99.90;;;;;;4981645;28;20084;-79
2021/12/20 03:39:04;;;;;;;30.23;14.38;;;3.50;99.90;;;;;;4979864;28;20266;-80
2021/12/20 03:41:30;;;;;;;34.08;14.65;;;3.60;99.90;;;;;;4952065;28;20261;-79
2021/12/20 03:43:56;;;;;;;30.27;14.07;;;3.60;99.90;;;;;;4965017;28;20051;-77
2021/12/20 03:46:22;;;;;;;30.33;14.23;;;3.70;99.90;;;;;;4973678;28;20039;-77
2021/12/20 03:48:48;;;;;;;26.65;13.02;;;3.60;99.90;;;;;;4970921;28;20306;-78
2021/12/20 03:51:14;;;;;;;28.45;13.82;;;3.50;99.90;;;;;;5041270;28;20039;-79
2021/12/20 03:53:40;;;;;;;29.92;13.70;;;3.60;99.90;;;;;;5083379;28;20024;-78
2021/12/20 03:56:06;;;;;;;32.95;15.02;;;3.50;99.90;;;;;;5065241;28;20058;-79
2021/12/20 03:58:33;;;;;;;31.58;14.13;;;3.40;99.90;;;;;;4981487;28;20037;-78
2021/12/20 04:01:03;;;;;;;28.95;13.32;;;3.40;99.90;;;;;;4980689;28;20031;-79
2021/12/20 04:03:31;;;;;;;27.63;13.32;;;3.40;99.90;;;;;;4981476;28;20035;-80
2021/12/20 04:05:57;;;;;;;31.10;14.50;;;3.30;99.90;;;;;;4980670;28;20051;-79
2021/12/20 04:08:23;;;;;;;30.00;14.27;;;3.30;99.90;;;;;;4981070;28;20030;-78
2021/12/20 04:10:49;;;;;;;30.75;14.60;;;3.30;99.90;;;;;;4981438;28;20098;-78
2021/12/20 04:13:15;;;;;;;32.47;13.93;;;3.40;99.90;;;;;;4963123;28;20260;-79
2021/12/20 04:15:40;;;;;;;27.70;13.88;;;3.40;99.90;;;;;;4981112;28;20325;-78
2021/12/20 04:18:06;;;;;;;29.10;13.10;;;3.40;99.90;;;;;;4980703;28;20301;-79
2021/12/20 04:20:32;;;;;;;31.73;14.63;;;3.50;99.90;;;;;;4981213;28;20213;-79
2021/12/20 04:22:58;;;;;;;31.77;14.55;;;3.50;99.90;;;;;;4980748;28;20039;-79
2021/12/20 04:25:24;;;;;;;29.90;14.65;;;3.60;99.90;;;;;;4981265;28;20069;-78
2021/12/20 04:27:49;;;;;;;30.08;14.25;;;3.60;99.90;;;;;;4964117;28;20315;-78
2021/12/20 04:30:15;;;;;;;29.30;14.82;;;3.60;99.90;;;;;;4963535;28;20301;-79
2021/12/20 04:32:43;;;;;;;31.23;15.25;;;3.70;99.90;;;;;;4980792;28;20027;-80
2021/12/20 04:35:10;;;;;;;;;;;3.70;99.90;;;;;;4963849;28;20371;-79
2021/12/20 04:37:36;;;;;;;29.15;13.75;;;3.70;99.90;;;;;;4981019;28;19913;-79
2021/12/20 04:40:07;;;;;;;35.22;15.57;;;3.70;99.90;;;;;;4980426;28;20119;-79
2021/12/20 04:42:33;;;;;;;30.98;13.73;;;3.80;99.90;;;;;;4980951;28;20038;-79
2021/12/20 04:44:59;;;;;;;31.35;14.65;;;3.80;99.90;;;;;;4979442;28;20115;-80
2021/12/20 04:47:25;;;;;;;27.40;13.07;;;3.90;99.90;;;;;;4973791;28;20098;-79
2021/12/20 04:49:51;;;;;;;32.47;15.00;;;3.90;99.90;;;;;;4997564;28;20122;-79
2021/12/20 04:52:16;;;;;;;28.27;13.27;;;3.80;99.90;;;;;;5036946;28;20026;-77
2021/12/20 04:54:43;;;;;;;30.45;14.57;;;3.80;99.90;;;;;;4995432;28;20039;-77
2021/12/20 04:57:10;;;;;;;33.13;15.57;;;3.70;99.90;;;;;;4958894;28;20090;-79
2021/12/20 04:59:36;;;;;;;35.60;15.07;;;3.80;99.90;;;;;;4980357;28;20090;-78
2021/12/20 05:02:02;;;;;;;36.47;14.93;;;3.70;99.90;;;;;;4980380;28;20045;-79
2021/12/20 05:04:28;;;;;;;31.45;15.70;;;3.70;99.90;;;;;;4963323;28;20031;-79
2021/12/20 05:06:53;;;;;;;31.05;14.75;;;3.60;99.90;;;;;;4979837;28;20034;-78
2021/12/20 05:09:20;;;;;;;32.55;15.95;;;3.60;99.90;;;;;;4980483;28;20264;-79
2021/12/20 05:11:57;;;;;;;31.25;14.57;;;3.60;99.90;;;;;;4980421;28;20049;-78
2021/12/20 05:14:45;;;;;;;29.10;14.73;;;3.50;99.90;;;;;;4982685;28;20051;-78
2021/12/20 05:17:12;;;;;;;30.00;14.07;;;3.40;99.90;;;;;;4965268;28;20253;-78
2021/12/20 05:19:40;;;;;;;31.13;14.52;;;3.40;99.90;;;;;;4964560;29;20042;-78
2021/12/20 05:22:06;;;;;;;30.15;13.57;;;3.50;99.90;;;;;;4978459;28;20022;-79
2021/12/20 05:24:32;;;;;;;30.30;13.15;;;3.50;99.90;;;;;;4983741;28;20034;-78
2021/12/20 05:26:57;;;;;;;31.88;14.80;;;3.50;99.90;;;;;;4984618;28;20078;-79
2021/12/20 05:29:24;;;;;;;36.00;15.02;;;3.50;99.90;;;;;;4980596;28;20033;-79
2021/12/20 05:31:51;;;;;;;30.65;14.23;;;3.50;99.90;;;;;;4972748;28;20023;-79
2021/12/20 05:34:16;;;;;;;31.92;13.73;;;3.40;99.90;;;;;;4946497;28;20037;-79
2021/12/20 05:36:42;;;;;;;31.23;14.73;;;3.50;99.90;;;;;;4969937;28;20133;-79
2021/12/20 05:39:08;;;;;;;31.92;14.23;;;3.50;99.90;;;;;;4982052;28;20023;-79
2021/12/20 05:41:36;;;;;;;35.22;15.57;;;3.60;99.90;;;;;;4982497;28;20025;-78
2021/12/20 05:44:03;;;;;;;38.00;15.13;;;3.60;99.90;;;;;;4946570;29;20037;-79
2021/12/20 05:46:28;;;;;;;35.85;16.27;;;3.60;99.90;;;;;;4964196;28;20031;-78
2021/12/20 05:48:54;;;;;;;33.78;15.23;;;3.60;99.90;;;;;;4965063;28;20107;-78
2021/12/20 05:51:20;;;;;;;29.33;14.60;;;3.60;99.90;;;;;;5010282;28;20069;-79
2021/12/20 05:53:46;;;;;;;30.95;14.32;;;3.50;99.90;;;;;;4983536;28;20206;-79
2021/12/20 05:56:11;;;;;;;29.42;14.50;;;3.50;99.90;;;;;;4982550;28;20053;-77
2021/12/20 05:58:37;;;;;;;30.10;12.93;;;3.50;99.90;;;;;;4998723;28;20027;-78
2021/12/20 06:01:03;;;;;;;30.17;13.90;;;3.50;99.90;;;;;;4987007;28;20066;-77
2021/12/20 06:03:30;;;;;;;35.28;14.85;;;3.60;99.90;;;;;;5031377;28;20020;-78
2021/12/20 06:05:56;;;;;;;31.30;14.32;;;3.50;99.90;;;;;;4987749;28;20042;-77
2021/12/20 06:08:22;;;;;;;33.72;14.30;;;3.50;99.90;;;;;;4967877;28;20022;-78
2021/12/20 06:10:48;;;;;;;38.78;16.80;;;3.40;99.90;;;;;;4982707;28;20042;-78
2021/12/20 06:13:13;;;;;;;36.90;16.23;;;3.40;99.90;;;;;;4981252;28;20120;-78
2021/12/20 06:15:39;;;;;;;36.60;15.38;;;3.50;99.90;;;;;;4982817;28;20050;-79
2021/12/20 06:18:05;;;;;;;29.65;13.57;;;3.40;99.90;;;;;;4981488;28;20038;-77
2021/12/20 06:20:31;;;;;;;31.15;15.55;;;3.40;99.90;;;;;;4982658;28;20090;-78
2021/12/20 06:22:57;;;;;;;31.95;14.60;;;3.30;99.90;;;;;;4982727;28;20303;-79
2021/12/20 06:25:25;;;;;;;34.83;14.55;;;3.40;99.90;;;;;;4981029;28;20042;-77
2021/12/20 06:27:50;;;;;;;28.63;13.60;;;3.30;99.90;;;;;;4981306;28;20023;-79
2021/12/20 06:30:16;;;;;;;30.95;13.70;;;3.30;99.90;;;;;;4981418;28;20034;-79
2021/12/20 06:32:44;;;;;;;31.85;14.35;;;3.30;99.90;;;;;;4983071;28;20098;-77
2021/12/20 06:35:10;;;;;;;29.83;13.65;;;3.30;99.90;;;;;;4982361;28;20045;-78
2021/12/20 06:37:36;;;;;;;31.20;14.20;;;3.30;99.90;;;;;;4965734;28;20038;-78
2021/12/20 06:40:04;;;;;;;29.98;13.38;;;3.40;99.90;;;;;;4983016;28;20101;-77
2021/12/20 06:42:30;;;;;;;30.90;14.02;;;3.50;99.90;;;;;;4965081;28;20053;-79
2021/12/20 06:44:55;;;;;;;30.63;14.23;;;3.50;99.90;;;;;;4964987;28;20039;-77
2021/12/20 06:47:22;;;;;;;30.42;14.63;;;3.50;99.90;;;;;;4964490;28;20055;-77
2021/12/20 06:49:48;;;;;;;32.83;14.13;;;3.50;99.90;;;;;;4982153;28;20327;-77
2021/12/20 06:52:13;;;;;;;30.23;13.77;;;3.60;99.90;;;;;;4982165;28;20034;-77
2021/12/20 06:54:40;;;;;;;29.08;14.48;;;3.60;99.90;;;;;;4982078;28;20037;-78
2021/12/20 06:57:06;;;;;;;28.60;13.60;;;3.60;99.90;;;;;;4970497;28;20105;-77
2021/12/20 06:59:32;;;;;;;29.45;13.60;;;3.60;99.90;;;;;;4952868;28;20037;-78
2021/12/20 07:01:58;;;;;;;28.90;13.30;;;3.60;99.90;;;;;;4980787;28;20081;-77
2021/12/20 07:04:24;;;;;;;32.08;13.82;;;3.80;99.90;;;;;;4981675;28;20030;-79
2021/12/20 07:06:50;;;;;;;27.50;13.10;;;3.80;99.90;;;;;;4985886;28;20294;-76
2021/12/20 07:09:16;;;;;;;29.17;13.20;;;3.80;99.90;;;;;;4986743;28;20038;-77
2021/12/20 07:11:43;;;;;;;30.83;14.25;;;3.90;99.90;;;;;;5031470;28;20031;-79
2021/12/20 07:14:09;;;;;;;33.67;14.07;;;3.90;99.90;;;;;;4981801;28;20055;-76
2021/12/20 07:16:36;;;;;;;35.00;15.43;;;3.90;99.90;;;;;;4982161;28;20054;-78
2021/12/20 07:19:05;;;;;;;34.50;14.77;;;3.90;99.90;;;;;;4989484;28;20066;-79
2021/12/20 07:21:31;;;;;;;31.40;14.65;;;3.90;99.90;;;;;;5054005;28;20039;-77
2021/12/20 07:23:57;;;;;;;37.42;14.13;;;3.90;99.90;;;;;;4980691;28;20022;-77
2021/12/20 07:26:23;;;;;;;29.88;14.43;;;3.90;99.90;;;;;;4981008;28;20317;-76
2021/12/20 07:28:48;;;;;;;32.88;14.70;;;3.80;99.90;;;;;;4982159;28;20110;-78
2021/12/20 07:31:14;;;;;;;34.75;13.98;;;3.80;99.90;;;;;;4980561;28;20049;-78
2021/12/20 07:33:42;;;;;;;27.33;13.82;;;3.80;99.90;;;;;;4981559;28;20309;-76
2021/12/20 07:36:08;;;;;;;34.47;14.95;;;3.90;99.90;;;;;;5046660;28;20048;-76
2021/12/20 07:38:35;;;;;;;29.52;13.82;;;3.80;99.90;;;;;;5048409;28;20322;-77
2021/12/20 07:41:01;;;;;;;30.45;13.90;;;3.80;99.90;;;;;;5064983;28;20048;-78
2021/12/20 07:43:27;;;;;;;31.33;14.40;;;3.80;99.90;;;;;;5050079;28;20465;-78
2021/12/20 07:45:53;;;;;;;32.83;14.45;;;3.80;99.90;;;;;;5030485;28;20046;-78
2021/12/20 07:48:21;;;;;;;34.92;14.15;;;3.80;99.90;;;;;;5022911;28;20042;-77
2021/12/20 07:50:48;;;;;;;33.78;14.43;;;3.80;99.90;;;;;;5065335;28;20052;-77
2021/12/20 07:53:15;;;;;;;34.50;15.38;;;3.80;99.90;;;;;;5066606;28;20062;-78
2021/12/20 07:55:41;;;;;;;30.75;14.07;;;3.90;99.90;;;;;;5082742;28;20040;-79
2021/12/20 07:58:07;;;;;;;29.92;14.18;;;3.80;99.90;;;;;;4961500;29;20031;-78
2021/12/20 08:00:34;;;;;;;27.45;14.27;;;3.80;99.90;;;;;;4971151;28;20332;-78
2021/12/20 08:03:00;;;;;;;26.17;12.52;;;3.80;99.90;;;;;;4974960;28;20094;-78
2021/12/20 08:05:28;;;;;;;28.38;13.98;;;3.80;99.90;;;;;;4963084;28;20039;-77
2021/12/20 08:07:54;;;;;;;30.42;14.25;;;3.80;99.90;;;;;;4979693;28;20022;-78
2021/12/20 08:10:23;;;;;;;30.35;14.30;;;3.80;99.90;;;;;;5009480;28;20027;-79
2021/12/20 08:12:49;;;;;;;;;;;3.90;99.90;;;;;;4976191;28;20069;-77
2021/12/20 08:15:16;;;;;;;31.40;13.88;;;4.00;99.90;;;;;;4979643;28;19914;-78
2021/12/20 08:17:43;;;;;;;30.48;14.05;;;4.10;99.90;;;;;;4994177;28;20058;-79
2021/12/20 08:20:10;;;;;;;31.88;14.60;;;4.10;99.90;;;;;;4979635;28;20034;-78
2021/12/20 08:22:37;;;;;;;33.10;14.43;;;4.20;99.90;;;;;;4969707;28;20228;-78
2021/12/20 08:25:03;;;;;;;29.80;13.75;;;4.30;99.90;;;;;;4975070;28;20019;-77
2021/12/20 08:27:30;;;;;;;29.35;13.88;;;4.30;99.90;;;;;;4995609;28;20058;-77
2021/12/20 08:29:55;;;;;;;27.67;13.68;;;4.30;99.90;;;;;;4980560;28;20026;-77
2021/12/20 08:32:21;;;;;;;29.35;13.10;;;4.40;99.90;;;;;;4979997;28;20141;-76
2021/12/20 08:34:48;;;;;;;35.28;14.75;;;4.40;99.90;;;;;;4969436;28;20033;-78
2021/12/20 08:37:14;;;;;;;31.20;13.40;;;4.50;99.90;;;;;;4979144;28;20039;-76
2021/12/20 08:39:41;;;;;;;32.75;14.00;;;4.50;99.90;;;;;;4980602;28;20057;-78
2021/12/20 08:42:07;;;;;;;30.13;13.98;;;4.60;99.90;;;;;;4995387;28;20034;-75
2021/12/20 08:44:34;;;;;;;30.98;14.95;;;4.70;99.90;;;;;;4963639;28;20045;-79
2021/12/20 08:47:01;;;;;;;25.60;12.68;;;4.60;99.90;;;;;;4994662;28;20278;-77
2021/12/20 08:49:27;;;;;;;30.58;13.82;;;4.80;99.90;;;;;;4979288;28;20087;-77
2021/12/20 08:51:55;;;;;;;28.02;13.25;;;4.90;99.90;;;;;;4985636;28;20016;-77
2021/12/20 08:54:27;;;;;;;29.92;14.05;;;4.90;99.90;;;;;;5029703;28;20209;-78
2021/12/20 08:56:53;;;;;;;33.28;14.10;;;4.80;99.90;;;;;;4996152;28;20039;-77
2021/12/20 08:59:19;;;;;;;28.70;14.05;;;4.80;99.90;;;;;;4979590;28;20037;-77
2021/12/20 09:01:45;;;;;;;29.17;13.75;;;4.80;99.90;;;;;;4995498;28;20039;-79
2021/12/20 09:04:12;;;;;;;28.95;14.05;;;4.80;99.90;;;;;;4981830;28;20309;-77
2021/12/20 09:06:40;;;;;;;27.35;13.23;;;4.90;99.90;;;;;;4999251;28;20100;-77
2021/12/20 09:09:13;;;;;;;26.92;12.45;;;4.90;99.90;;;;;;4981563;28;20103;-76
2021/12/20 09:11:39;;;;;;;25.35;12.63;;;5.00;99.90;;;;;;4995409;28;20126;-77
2021/12/20 09:14:05;;;;;;;26.17;12.48;;;5.00;99.90;;;;;;4997038;28;20043;-78
2021/12/20 09:16:32;;;;;;;25.38;12.70;;;5.10;99.90;;;;;;4998625;28;20066;-78
2021/12/20 09:18:58;;;;;;;27.33;12.52;;;5.20;99.90;;;;;;4998462;28;20034;-77
2021/12/20 09:21:24;;;;;;;25.55;12.70;;;5.20;99.90;;;;;;4999275;28;20038;-78
2021/12/20 09:23:50;;;;;;;26.38;13.52;;;5.10;99.90;;;;;;4999530;28;20083;-77
2021/12/20 09:26:17;;;;;;;26.90;13.00;;;5.10;99.90;;;;;;5012562;28;20254;-78
2021/12/20 09:28:43;;;;;;;28.55;13.23;;;5.20;99.90;;;;;;5081748;28;20066;-77
2021/12/20 09:31:09;;;;;;;26.35;13.40;;;5.20;99.90;;;;;;5062865;28;20044;-77
2021/12/20 09:33:35;;;;;;;27.55;13.65;;;5.30;99.90;;;;;;5063967;28;20094;-77
2021/12/20 09:36:02;;;;;;;24.27;12.07;;;5.40;99.90;;;;;;5063742;28;20036;-77
2021/12/20 09:38:30;;;;;;;28.52;14.32;;;5.50;99.90;;;;;;5081059;28;20482;-80
2021/12/20 09:43:46;;;;;;;27.15;13.63;;;5.60;99.90;;;;;;5063796;28;19905;-79
2021/12/20 09:46:12;;;;;;;27.30;14.07;;;5.70;99.90;;;;;;5062650;28;20100;-77
2021/12/20 09:48:41;;;;;;;29.23;13.90;;;5.60;99.90;;;;;;5075238;28;20067;-78
2021/12/20 09:51:07;;;;;;;29.17;13.45;;;5.70;99.90;;;;;;4980006;28;20026;-79
2021/12/20 09:53:42;;;;;;;29.63;14.70;;;5.70;99.90;;;;;;4958987;28;20042;-79
2021/12/20 09:56:16;;;;;;;32.17;14.63;;;5.80;99.90;;;;;;4982565;28;20038;-77
2021/12/20 09:58:42;;;;;;;30.20;15.00;;;5.90;99.90;;;;;;4979651;28;20069;-78
2021/12/20 10:01:12;;;;;;;27.40;13.35;;;5.80;99.90;;;;;;4961396;28;20031;-79
2021/12/20 10:03:38;;;;;;;28.77;13.93;;;5.80;99.90;;;;;;4982673;28;20038;-78
2021/12/20 10:06:05;;;;;;;28.48;13.90;;;6.00;99.90;;;;;;4982938;28;20025;-77
2021/12/20 10:08:33;;;;;;;34.40;15.73;;;6.20;99.90;;;;;;4982389;28;20258;-78
2021/12/20 10:11:16;;;;;;;29.42;13.82;;;6.40;99.90;;;;;;4982095;28;20051;-77
2021/12/20 10:13:42;;;;;;;29.58;15.25;;;6.60;99.90;;;;;;4963258;28;20055;-78
2021/12/20 10:16:20;;;;;;;27.90;14.85;;;6.70;99.90;;;;;;4974270;28;20178;-78
2021/12/20 10:18:47;;;;;;;28.92;15.02;;;6.70;99.90;;;;;;4964168;29;20027;-78
2021/12/20 10:21:14;;;;;;;26.83;13.60;;;6.90;99.90;;;;;;4976002;28;20333;-78
2021/12/20 10:23:44;;;;;;;30.42;15.52;;;7.10;99.90;;;;;;4965908;28;20031;-80
2021/12/20 10:26:16;;;;;;;28.38;14.60;;;7.30;99.90;;;;;;5016872;28;20028;-79
2021/12/20 10:28:43;;;;;;;27.90;14.60;;;7.70;99.90;;;;;;5084771;28;20024;-76
2021/12/20 10:31:17;;;;;;;28.45;14.55;;;8.10;99.90;;;;;;5083893;28;20044;-78
2021/12/20 10:34:01;;;;;;;27.60;14.52;;;8.30;99.90;;;;;;5007858;28;20121;-76
2021/12/20 10:36:28;;;;;;;28.17;14.63;;;8.70;99.90;;;;;;4981937;28;20034;-77
2021/12/20 10:38:59;;;;;;;29.10;15.30;;;8.60;99.90;;;;;;4965301;28;20101;-78
2021/12/20 10:41:36;;;;;;;24.15;13.98;;;8.60;99.90;;;;;;4964782;28;20049;-79
2021/12/20 10:44:19;;;;;;;34.40;15.70;;;8.30;99.90;;;;;;4981363;28;20077;-77
2021/12/20 10:46:47;;;;;;;28.48;14.57;;;8.10;99.90;;;;;;4981955;28;20049;-77
2021/12/20 10:49:18;;;;;;;25.67;13.48;;;7.80;99.90;;;;;;4981629;28;20050;-76
2021/12/20 10:51:48;;;;;;;26.02;13.38;;;7.40;99.90;;;;;;4985952;28;20076;-77
2021/12/20 10:54:18;;;;;;;23.02;12.43;;;7.20;99.90;;;;;;4981572;28;20030;-77
2021/12/20 10:57:01;;;;;;;24.50;12.70;;;7.00;99.90;;;;;;4988730;28;20329;-79
2021/12/20 10:59:29;;;;;;;26.88;12.85;;;6.80;99.90;;;;;;4974095;28;20033;-78
2021/12/20 11:05:00;;;;;;;24.60;13.18;;;6.80;99.90;;;;;;5009706;28;20022;-78
2021/12/20 11:10:26;;;;;;;25.15;13.10;;;7.50;99.90;;;;;;4967795;28;20046;-78
2021/12/20 11:12:56;;;;;;;25.45;12.48;;;8.60;99.90;;;;;;4962399;28;20303;-78
2021/12/20 11:15:28;;;;;;;23.88;12.13;;;10.30;99.90;;;;;;4963542;28;20031;-76
2021/12/20 11:17:54;;;;;;;19.55;10.98;;;11.70;99.90;;;;;;4962562;29;20039;-79
2021/12/20 11:20:21;;;;;;;20.63;11.85;;;12.70;99.90;;;;;;4976879;28;20066;-79
2021/12/20 11:22:47;;;;;;;21.15;11.82;;;12.50;99.90;;;;;;4973603;28;20022;-77
2021/12/20 11:25:15;;;;;;;19.25;11.20;;;12.70;99.90;;;;;;4963708;28;20042;-77
2021/12/20 11:27:46;;;;;;;18.52;11.23;;;12.90;99.90;;;;;;4975053;28;20104;-78
2021/12/20 11:30:15;;;;;;;14.50;9.35;;;13.50;99.90;;;;;;4980270;28;20217;-79
2021/12/20 11:32:41;;;;;;;14.65;8.88;;;14.30;99.30;;;;;;4964035;28;20027;-78
2021/12/20 11:35:07;;;;;;;13.77;8.00;;;14.60;98.40;;;;;;4945387;29;20034;-78
2021/12/20 11:37:33;;;;;;;10.13;6.05;;;15.60;97.70;;;;;;4961774;29;20059;-78
2021/12/20 11:40:02;;;;;;;11.40;6.15;;;16.30;95.00;;;;;;4961766;28;20157;-78
2021/12/20 11:42:29;;;;;;;13.93;6.63;;;16.10;94.80;;;;;;4962008;29;20023;-78
2021/12/20 11:45:00;;;;;;;11.95;6.13;;;16.10;94.50;;;;;;4963463;28;20053;-77
2021/12/20 11:47:48;;;;;;;9.55;6.07;;;15.20;94.50;;;;;;4995841;28;20038;-77
2021/12/20 11:50:18;;;;;;;12.65;6.45;;;14.70;96.40;;;;;;4981267;28;20050;-75
2021/12/20 11:52:46;;;;;;;16.08;8.82;;;13.80;97.20;;;;;;5040412;28;20032;-77
2021/12/20 11:55:30;;;;;;;17.40;10.30;;;12.90;98.40;;;;;;5081593;28;20036;-77
2021/12/20 11:57:58;;;;;;;18.40;10.65;;;11.70;99.90;;;;;;5083123;28;20028;-79
2021/12/20 12:00:33;;;;;;;18.92;11.68;;;10.70;99.90;;;;;;5081612;28;20036;-78
2021/12/20 12:03:16;;;;;;;19.77;11.05;;;9.80;99.90;;;;;;5040425;28;20043;-78
2021/12/20 12:05:58;;;;;;;23.25;11.20;;;9.10;99.90;;;;;;4973760;28;20050;-78
2021/12/20 12:08:34;;;;;;;19.85;9.52;;;8.60;99.90;;;;;;4994919;28;20047;-78
2021/12/20 12:11:43;;;;;;;19.83;10.57;;;8.30;99.90;;;;;;4957262;28;20055;-79
2021/12/20 12:14:20;;;;;;;18.13;8.65;;;7.90;99.90;;;;;;5020942;28;20073;-80
2021/12/20 12:17:02;;;;;;;18.10;8.77;;;7.90;99.90;;;;;;5020714;28;20137;-79
2021/12/20 12:19:43;;;;;;;17.52;9.07;;;7.90;99.90;;;;;;5020661;28;20325;-79
2021/12/20 12:22:27;;;;;;;18.85;9.40;;;7.80;99.90;;;;;;5033430;28;20064;-79
2021/12/20 12:24:55;;;;;;;17.40;9.25;;;7.90;99.90;;;;;;5032289;28;20068;-79
2021/12/20 12:27:25;;;;;;;18.80;10.05;;;8.00;99.90;;;;;;5023347;28;20043;-79
2021/12/20 12:30:27;;;;;;;20.58;8.65;;;7.70;99.90;;;;;;5040298;28;20212;-78
2021/12/20 12:32:54;;;;;;;18.65;8.60;;;7.60;99.90;;;;;;5030876;28;20068;-80
2021/12/20 12:35:42;;;;;;;20.08;8.90;;;7.60;99.90;;;;;;5003496;28;20237;-78
2021/12/20 12:38:15;;;;;;;20.17;8.73;;;7.50;99.90;;;;;;5020329;28;20338;-78
2021/12/20 12:40:43;;;;;;;20.75;9.68;;;7.50;99.90;;;;;;5007457;28;20342;-78
2021/12/20 12:43:09;;;;;;;20.25;10.20;;;7.50;99.90;;;;;;5000897;28;20022;-78
2021/12/20 12:45:48;;;;;;;17.65;9.13;;;7.50;99.90;;;;;;4988337;28;20038;-79
2021/12/20 12:48:39;;;;;;;18.85;9.95;;;7.60;99.90;;;;;;5020487;28;20266;-77
2021/12/20 12:51:20;;;;;;;20.08;9.60;;;7.40;99.90;;;;;;4997793;28;20043;-77
2021/12/20 12:53:54;;;;;;;22.50;9.82;;;7.30;99.90;;;;;;4961420;28;20047;-78
2021/12/20 12:56:26;;;;;;;23.95;9.50;;;7.00;99.90;;;;;;4965617;28;20340;-77
2021/12/20 12:59:14;;;;;;;19.80;9.95;;;6.90;99.90;;;;;;5060937;28;20056;-77
2021/12/20 13:01:51;;;;;;;21.30;10.70;;;6.70;99.90;;;;;;5059557;28;20037;-77
2021/12/20 13:04:18;;;;;;;19.90;9.70;;;6.50;99.90;;;;;;4964241;28;20039;-80